Portada
METAR-TAF:

METAR-TAF

Aeroports :

Marshall County Airport

Lacon, Illinois, Estats Units d'Amèrica

latitud: 41-01-09N, longitud: 089-23-11W, altitud: 173 m

Observació

L'informe es va fer fa 10 minuts, a les 07:35 UTC
Vent 3 kt del Nord-Est
Temperatura 17°C
Humitat 100%
Pressió 1017 hPa
Visibilitat: 11.3 km
Cel ennuvolat a una alçada de 700 ft

METAR: KC75 250735Z AUTO 04003KT 7SM BKN007 17/17 A3003 RMK AO2 T01720167

Hora: 02:45 (07:45 UTC)


TAF: manca

Observacions i pronòstics meteorològics de més de 4000 aeroports (METAR i TAF).

Les estacions disponibles són els punts grocs i vermells al mapa.

Posi el ratolí al punt desitjat per veure el nom de l'estació.

Feu clic per veure les observacions i els pronòstics meteorològics.

Per canviar el mapa: feu clic els botons verds amb una creu de color negre per apropar; al botó verd amb un guió per allunyar la imatge; o en les fletxes verdes per a mapes adjacents.


METAR-TAF: